Time;durP1;ratioP1;P1;durP2;ratioP2;P2;SDS_P1;SDS_P2;PMS_P1;PMS_P2;Temp;Humidity;BMP_temperature;BMP_pressure;BME280_temperature;BME280_humidity;BME280_pressure;Samples;Min_cycle;Max_cycle;Signal;HPM_P1;HPM_P2
2024/04/08 00:01:53;;;;;;;1.50;1.10;;;15.60;98.20;;;;;;4880910;29;20756;-79
2024/04/08 00:04:20;;;;;;;1.47;0.90;;;15.60;98.20;;;;;;4887940;29;20911;-79
2024/04/08 00:06:46;;;;;;;1.50;0.97;;;15.60;98.20;;;;;;4881262;29;21027;-79
2024/04/08 00:09:13;;;;;;;1.47;0.90;;;15.60;98.20;;;;;;4885308;29;20485;-78
2024/04/08 00:11:39;;;;;;;1.50;0.97;;;15.60;98.20;;;;;;4880237;29;20229;-78
2024/04/08 00:14:05;;;;;;;1.50;0.90;;;15.60;98.20;;;;;;4890532;29;20505;-78
2024/04/08 00:16:31;;;;;;;1.50;1.00;;;15.60;98.20;;;;;;4871165;29;20237;-78
2024/04/08 00:19:00;;;;;;;1.47;0.90;;;15.50;98.20;;;;;;4893444;29;20482;-78
2024/04/08 00:21:25;;;;;;;1.47;0.90;;;15.50;98.20;;;;;;4876273;29;20233;-79
2024/04/08 00:23:52;;;;;;;1.50;0.90;;;15.50;98.20;;;;;;4896255;29;20536;-80
2024/04/08 00:26:18;;;;;;;1.47;0.90;;;15.40;98.20;;;;;;4879240;29;20232;-79
2024/04/08 00:28:45;;;;;;;1.50;1.00;;;15.40;98.20;;;;;;4898308;29;20824;-80
2024/04/08 00:31:10;;;;;;;1.50;1.00;;;15.40;98.20;;;;;;4874348;29;20244;-80
2024/04/08 00:33:38;;;;;;;1.50;1.00;;;15.40;98.20;;;;;;4901216;29;20490;-80
2024/04/08 00:36:06;;;;;;;1.47;1.00;;;15.40;98.20;;;;;;4872206;29;20262;-82
2024/04/08 00:38:33;;;;;;;1.50;0.90;;;15.30;98.20;;;;;;4898466;29;20517;-82
2024/04/08 00:41:02;;;;;;;1.50;1.00;;;15.40;98.20;;;;;;4871554;29;20522;-81
2024/04/08 00:43:30;;;;;;;1.50;1.00;;;15.40;98.20;;;;;;4902750;29;21032;-81
2024/04/08 00:45:56;;;;;;;1.47;0.90;;;15.40;98.20;;;;;;4871879;29;20472;-80
2024/04/08 00:48:22;;;;;;;1.47;0.90;;;15.40;98.20;;;;;;4907268;29;20954;-81
2024/04/08 00:50:49;;;;;;;1.50;0.90;;;15.40;98.20;;;;;;4870460;29;20478;-80
2024/04/08 00:53:18;;;;;;;1.50;0.97;;;15.40;98.20;;;;;;4906586;29;20569;-80
2024/04/08 00:55:46;;;;;;;1.50;1.00;;;15.40;98.20;;;;;;4876957;29;20721;-80
2024/04/08 00:58:13;;;;;;;1.50;0.90;;;15.40;98.20;;;;;;4866128;29;20982;-80
2024/04/08 01:00:40;;;;;;;1.50;1.00;;;15.40;98.20;;;;;;4879672;29;20462;-80
2024/04/08 01:03:07;;;;;;;1.50;0.90;;;15.40;98.20;;;;;;4897014;29;20965;-81
2024/04/08 01:05:34;;;;;;;1.50;1.00;;;15.40;98.20;;;;;;4874519;29;20553;-84
2024/04/08 01:08:01;;;;;;;1.50;1.00;;;15.30;98.20;;;;;;4898538;29;20514;-80
2024/04/08 01:10:29;;;;;;;1.50;1.00;;;15.20;98.20;;;;;;4876690;29;20476;-81
2024/04/08 01:12:56;;;;;;;1.47;0.90;;;15.10;98.20;;;;;;4892549;29;20488;-80
2024/04/08 01:15:21;;;;;;;1.50;1.00;;;15.10;98.20;;;;;;4879870;29;20498;-80
2024/04/08 01:17:50;;;;;;;1.50;0.97;;;15.10;98.20;;;;;;4894453;29;20485;-80
2024/04/08 01:20:16;;;;;;;1.50;1.00;;;15.10;98.20;;;;;;4875558;29;20218;-80
2024/04/08 01:22:45;;;;;;;1.47;1.00;;;15.10;98.20;;;;;;4898313;29;20861;-80
2024/04/08 01:25:12;;;;;;;1.47;1.00;;;15.10;98.20;;;;;;4880729;29;20206;-80
2024/04/08 01:27:39;;;;;;;1.50;0.90;;;15.10;98.20;;;;;;4895161;29;20484;-78
2024/04/08 01:30:06;;;;;;;1.50;0.90;;;15.10;98.20;;;;;;4873934;29;20467;-80
2024/04/08 01:32:33;;;;;;;1.50;0.90;;;15.10;98.20;;;;;;4888467;29;20489;-78
2024/04/08 01:34:59;;;;;;;1.50;0.90;;;15.10;98.20;;;;;;4873438;29;20857;-78
2024/04/08 01:37:25;;;;;;;1.50;0.90;;;15.00;98.20;;;;;;4890086;29;20576;-79
2024/04/08 01:39:51;;;;;;;1.50;1.00;;;15.00;98.20;;;;;;4878775;29;20210;-79
2024/04/08 01:42:19;;;;;;;1.50;1.00;;;15.00;98.20;;;;;;4886595;29;20491;-79
2024/04/08 01:44:45;;;;;;;1.50;1.00;;;14.90;98.20;;;;;;4878960;29;20206;-78
2024/04/08 01:47:12;;;;;;;1.50;1.00;;;14.90;98.20;;;;;;4886342;29;20860;-80
2024/04/08 01:49:38;;;;;;;1.50;1.00;;;14.90;98.20;;;;;;4882422;29;20218;-80
2024/04/08 01:52:06;;;;;;;1.50;1.00;;;14.90;98.20;;;;;;4885269;29;20476;-80
2024/04/08 01:54:33;;;;;;;1.43;0.93;;;14.90;98.20;;;;;;4878295;29;20230;-79
2024/04/08 01:56:59;;;;;;;1.50;1.00;;;14.90;98.20;;;;;;4877338;29;20496;-80
2024/04/08 01:59:27;;;;;;;1.50;0.97;;;14.90;98.20;;;;;;4886077;29;20573;-81
2024/04/08 02:01:52;;;;;;;1.50;1.00;;;14.90;98.20;;;;;;4883332;29;20643;-80
2024/04/08 02:04:19;;;;;;;1.50;1.00;;;14.80;98.20;;;;;;4886793;29;20504;-80
2024/04/08 02:06:45;;;;;;;1.50;1.00;;;14.80;98.20;;;;;;4881045;29;20704;-80
2024/04/08 02:09:12;;;;;;;1.50;1.00;;;14.70;98.20;;;;;;4884895;29;20842;-80
2024/04/08 02:11:38;;;;;;;1.50;1.00;;;14.70;98.20;;;;;;4879323;29;20239;-79
2024/04/08 02:14:05;;;;;;;1.50;1.00;;;14.60;98.20;;;;;;4890968;29;20494;-80
2024/04/08 02:16:32;;;;;;;1.50;1.00;;;14.60;98.20;;;;;;4876290;29;20228;-80
2024/04/08 02:18:59;;;;;;;1.50;1.10;;;14.50;98.20;;;;;;4888401;29;20482;-80
2024/04/08 02:21:24;;;;;;;1.50;1.00;;;14.50;98.20;;;;;;4874481;29;20491;-80
2024/04/08 02:23:51;;;;;;;1.50;1.00;;;14.50;98.20;;;;;;4897686;29;21117;-80
2024/04/08 02:26:18;;;;;;;1.50;1.00;;;14.50;98.20;;;;;;4873351;29;20597;-80
2024/04/08 02:28:45;;;;;;;1.50;1.10;;;14.40;98.20;;;;;;4891647;29;20474;-82
2024/04/08 02:31:11;;;;;;;1.50;1.00;;;14.40;98.20;;;;;;4870865;29;20494;-80
2024/04/08 02:33:40;;;;;;;1.50;1.10;;;14.40;98.20;;;;;;4894541;29;20522;-81
2024/04/08 02:36:06;;;;;;;1.50;1.07;;;14.40;98.20;;;;;;4871790;29;20490;-81
2024/04/08 02:38:34;;;;;;;1.50;1.00;;;14.40;98.20;;;;;;4899083;29;20565;-80
2024/04/08 02:41:00;;;;;;;1.50;0.90;;;14.40;98.20;;;;;;4867720;29;20850;-80
2024/04/08 02:43:27;;;;;;;1.50;1.00;;;14.40;98.20;;;;;;4900069;29;20512;-80
2024/04/08 02:45:52;;;;;;;1.50;0.90;;;14.40;98.20;;;;;;4865354;29;20541;-82
2024/04/08 02:48:20;;;;;;;1.50;1.00;;;14.50;98.20;;;;;;4896562;29;20565;-81
2024/04/08 02:50:48;;;;;;;1.50;1.00;;;14.50;98.20;;;;;;4869501;29;20225;-81
2024/04/08 02:53:14;;;;;;;1.50;1.00;;;14.40;98.20;;;;;;4901232;29;20498;-80
2024/04/08 02:55:40;;;;;;;1.50;1.00;;;14.40;98.20;;;;;;4873893;29;20493;-82
2024/04/08 02:58:07;;;;;;;1.50;1.00;;;14.40;98.20;;;;;;4893257;29;20488;-81
2024/04/08 03:00:37;;;;;;;1.50;1.00;;;14.40;98.20;;;;;;4871961;29;20670;-83
2024/04/08 03:03:04;;;;;;;1.50;1.00;;;14.30;98.20;;;;;;4897192;29;20875;-80
2024/04/08 03:05:29;;;;;;;1.50;1.00;;;14.30;98.20;;;;;;4872925;29;20462;-80
2024/04/08 03:07:58;;;;;;;1.50;1.00;;;14.30;98.20;;;;;;4893236;29;20957;-80
2024/04/08 03:10:23;;;;;;;1.50;1.00;;;14.20;98.20;;;;;;4871771;29;20218;-80
2024/04/08 03:12:50;;;;;;;1.50;1.00;;;14.20;98.20;;;;;;4895543;29;20507;-80
2024/04/08 03:15:16;;;;;;;1.50;1.00;;;14.10;98.20;;;;;;4873512;29;20748;-80
2024/04/08 03:17:43;;;;;;;1.50;1.00;;;14.00;98.20;;;;;;4899433;29;20520;-80
2024/04/08 03:20:09;;;;;;;1.50;1.00;;;14.00;98.20;;;;;;4876795;29;20211;-84
2024/04/08 03:22:36;;;;;;;1.50;1.00;;;14.00;98.20;;;;;;4890222;29;20553;-80
2024/04/08 03:25:04;;;;;;;1.50;1.10;;;13.90;98.20;;;;;;4881681;29;20467;-85
2024/04/08 03:27:31;;;;;;;1.50;1.00;;;13.90;98.20;;;;;;4899290;29;20480;-80
2024/04/08 03:29:56;;;;;;;1.50;1.10;;;13.90;98.20;;;;;;4879581;29;20466;-80
2024/04/08 03:32:23;;;;;;;1.50;1.00;;;13.80;98.20;;;;;;4895166;29;21063;-80
2024/04/08 03:34:49;;;;;;;1.50;1.00;;;13.80;98.20;;;;;;4886938;29;20229;-81
2024/04/08 03:37:16;;;;;;;1.50;1.00;;;13.80;98.20;;;;;;4892393;29;20580;-80
2024/04/08 03:39:42;;;;;;;1.50;1.10;;;13.80;98.20;;;;;;4893942;29;20194;-82
2024/04/08 03:42:11;;;;;;;1.50;1.00;;;13.70;98.20;;;;;;4903731;29;20477;-80
2024/04/08 03:44:38;;;;;;;1.50;1.00;;;13.70;98.20;;;;;;4883956;29;20472;-79
2024/04/08 03:47:04;;;;;;;1.50;1.00;;;13.80;98.20;;;;;;4889118;29;20492;-80
2024/04/08 03:49:30;;;;;;;1.50;1.03;;;13.80;98.20;;;;;;4884456;29;20466;-80
2024/04/08 03:51:57;;;;;;;1.50;0.97;;;13.80;98.20;;;;;;4887668;29;20502;-80
2024/04/08 03:54:23;;;;;;;1.50;1.00;;;13.80;98.20;;;;;;4888577;29;20290;-79
2024/04/08 03:56:50;;;;;;;1.50;0.90;;;13.80;98.20;;;;;;4884969;29;20503;-80
2024/04/08 03:59:17;;;;;;;3.40;2.93;;;13.80;98.20;;;;;;4891395;29;20217;-81
2024/04/08 04:01:43;;;;;;;1.50;1.00;;;13.70;98.20;;;;;;4884044;29;20519;-80
2024/04/08 04:04:09;;;;;;;1.50;1.00;;;13.60;98.20;;;;;;4892579;29;20490;-83
2024/04/08 04:06:36;;;;;;;1.50;1.00;;;13.60;98.20;;;;;;4880845;29;20523;-79
2024/04/08 04:09:03;;;;;;;1.50;1.00;;;13.60;98.20;;;;;;4892411;29;20221;-80
2024/04/08 04:11:30;;;;;;;1.50;1.00;;;13.60;98.20;;;;;;4876889;29;20508;-80
2024/04/08 04:13:55;;;;;;;1.50;1.00;;;13.60;98.20;;;;;;4895519;29;20490;-80
2024/04/08 04:16:24;;;;;;;1.50;1.00;;;13.70;98.20;;;;;;4877417;29;20853;-79
2024/04/08 04:18:51;;;;;;;1.50;1.00;;;13.60;98.20;;;;;;4893739;29;20214;-80
2024/04/08 04:21:18;;;;;;;1.50;1.07;;;13.70;98.20;;;;;;4876136;29;20527;-79
2024/04/08 04:23:44;;;;;;;1.50;0.90;;;13.60;98.20;;;;;;4900244;29;20514;-80
2024/04/08 04:26:11;;;;;;;1.50;1.00;;;13.60;98.20;;;;;;4874512;29;20519;-81
2024/04/08 04:28:37;;;;;;;1.50;1.00;;;13.60;98.20;;;;;;4901715;29;20465;-79
2024/04/08 04:31:04;;;;;;;1.50;1.00;;;13.60;98.20;;;;;;4871902;29;20477;-79
2024/04/08 04:33:31;;;;;;;1.50;1.00;;;13.60;98.20;;;;;;4901417;29;23324;-81
2024/04/08 04:35:59;;;;;;;1.50;1.00;;;13.60;98.20;;;;;;4869535;29;20494;-81
2024/04/08 04:38:26;;;;;;;1.50;1.00;;;13.60;98.20;;;;;;4897295;29;20509;-79
2024/04/08 04:41:02;;;;;;;1.50;1.03;;;13.60;98.20;;;;;;4867928;29;21022;-79
2024/04/08 04:43:29;;;;;;;1.50;1.00;;;13.60;98.20;;;;;;4900083;29;20490;-82
2024/04/08 04:45:55;;;;;;;1.50;1.00;;;13.60;98.20;;;;;;4869129;29;20474;-81
2024/04/08 04:48:21;;;;;;;1.50;1.00;;;13.60;98.20;;;;;;4906770;29;20473;-81
2024/04/08 04:50:50;;;;;;;1.50;1.00;;;13.60;98.20;;;;;;4868172;29;20471;-80
2024/04/08 04:53:16;;;;;;;1.50;1.00;;;13.70;98.20;;;;;;4900833;29;20233;-81
2024/04/08 04:55:43;;;;;;;1.50;1.00;;;13.70;98.20;;;;;;4879001;29;20882;-80
2024/04/08 04:58:09;;;;;;;1.50;1.00;;;13.70;98.20;;;;;;4901938;29;20325;-82
2024/04/08 05:00:37;;;;;;;1.40;1.00;;;13.80;98.20;;;;;;4877351;29;20977;-80
2024/04/08 05:03:03;;;;;;;1.50;1.00;;;13.80;98.20;;;;;;4893580;29;20232;-81
2024/04/08 05:05:30;;;;;;;1.50;1.10;;;13.80;98.20;;;;;;4876786;29;21155;-81
2024/04/08 05:07:58;;;;;;;1.50;1.00;;;13.80;98.20;;;;;;4898281;29;20520;-80
2024/04/08 05:10:24;;;;;;;1.50;1.10;;;13.80;98.20;;;;;;4879220;29;20485;-80
2024/04/08 05:12:50;;;;;;;1.50;1.00;;;13.80;98.20;;;;;;4903609;29;20506;-81
2024/04/08 05:15:17;;;;;;;1.50;1.00;;;13.80;98.20;;;;;;4886784;29;20861;-82
2024/04/08 05:17:43;;;;;;;1.50;1.00;;;13.80;98.20;;;;;;4890773;29;20235;-81
2024/04/08 05:20:10;;;;;;;1.50;1.00;;;13.90;98.20;;;;;;4878874;29;20541;-82
2024/04/08 05:22:39;;;;;;;1.50;1.10;;;13.90;98.20;;;;;;4896517;29;20247;-82
2024/04/08 05:25:10;;;;;;;1.50;1.00;;;13.90;98.20;;;;;;4870138;29;20491;-80
2024/04/08 05:27:36;;;;;;;1.50;1.10;;;14.00;98.20;;;;;;4889172;29;20687;-80
2024/04/08 05:30:03;;;;;;;1.50;1.00;;;14.00;98.20;;;;;;4878392;29;20485;-80
2024/04/08 05:32:29;;;;;;;1.50;1.00;;;14.00;98.20;;;;;;4888796;29;20312;-81
2024/04/08 05:34:56;;;;;;;1.50;1.00;;;14.10;98.20;;;;;;4883904;29;20801;-80
2024/04/08 05:37:24;;;;;;;1.50;1.00;;;14.10;98.20;;;;;;4887603;29;20494;-80
2024/04/08 05:39:52;;;;;;;1.50;1.00;;;14.10;98.20;;;;;;4878137;29;20475;-80
2024/04/08 05:42:19;;;;;;;1.50;1.00;;;14.10;98.20;;;;;;4889887;29;20494;-80
2024/04/08 05:44:47;;;;;;;1.50;1.00;;;14.20;98.20;;;;;;4880202;29;20478;-79
2024/04/08 05:47:13;;;;;;;1.50;1.00;;;14.20;98.20;;;;;;4886693;29;20504;-80
2024/04/08 05:49:40;;;;;;;1.50;1.30;;;14.20;98.20;;;;;;4879480;29;20470;-79
2024/04/08 05:52:06;;;;;;;1.50;1.00;;;14.30;98.20;;;;;;4877615;29;20497;-79
2024/04/08 05:54:33;;;;;;;1.50;1.00;;;14.40;98.20;;;;;;4884172;29;20500;-80
2024/04/08 05:56:59;;;;;;;1.53;1.20;;;14.50;98.20;;;;;;4885723;29;21118;-80
2024/04/08 05:59:28;;;;;;;1.50;1.00;;;14.60;98.20;;;;;;4885281;29;20561;-81
2024/04/08 06:01:54;;;;;;;1.50;1.00;;;14.70;98.20;;;;;;4880691;29;20496;-80
2024/04/08 06:04:20;;;;;;;1.50;1.00;;;14.90;98.20;;;;;;4885629;29;20499;-80
2024/04/08 06:06:46;;;;;;;1.50;1.00;;;14.90;98.20;;;;;;4880934;29;20556;-81
2024/04/08 06:09:13;;;;;;;1.50;1.00;;;15.00;98.20;;;;;;4887611;29;20557;-80
2024/04/08 06:11:39;;;;;;;1.50;1.00;;;15.10;98.20;;;;;;4877909;29;20229;-80
2024/04/08 06:14:05;;;;;;;1.50;1.00;;;15.30;98.20;;;;;;4888273;29;20577;-80
2024/04/08 06:16:33;;;;;;;1.50;1.10;;;15.40;98.20;;;;;;4874521;29;20787;-80
2024/04/08 06:18:59;;;;;;;1.50;1.00;;;15.60;98.20;;;;;;4890177;29;20490;-81
2024/04/08 06:21:25;;;;;;;1.50;0.97;;;15.80;98.20;;;;;;4874791;29;20492;-81
2024/04/08 06:23:52;;;;;;;1.50;1.03;;;15.90;98.20;;;;;;4894907;29;20490;-81
2024/04/08 06:26:18;;;;;;;1.50;1.00;;;16.00;98.20;;;;;;4873643;29;20227;-81
2024/04/08 06:28:45;;;;;;;1.50;1.00;;;16.20;98.20;;;;;;4894516;29;20471;-81
2024/04/08 06:31:11;;;;;;;1.50;1.00;;;16.30;98.20;;;;;;4872545;29;20243;-82
2024/04/08 06:33:39;;;;;;;1.53;1.00;;;16.40;98.20;;;;;;4900215;29;20498;-81
2024/04/08 06:36:05;;;;;;;1.50;1.00;;;16.50;98.20;;;;;;4881312;29;20237;-80
2024/04/08 06:38:32;;;;;;;1.50;1.00;;;16.70;98.20;;;;;;4898119;29;20566;-80
2024/04/08 06:40:58;;;;;;;1.50;0.97;;;16.80;98.20;;;;;;4868087;29;20769;-81
2024/04/08 06:43:25;;;;;;;1.50;0.90;;;17.00;98.20;;;;;;4899877;29;20530;-80
2024/04/08 06:45:57;;;;;;;1.50;1.00;;;17.10;98.20;;;;;;4864667;29;20218;-82
2024/04/08 06:48:24;;;;;;;1.50;1.20;;;17.20;98.20;;;;;;4894379;29;20474;-82
2024/04/08 06:50:51;;;;;;;1.50;0.90;;;17.30;98.20;;;;;;4870770;29;21007;-81
2024/04/08 06:53:18;;;;;;;1.50;1.00;;;17.30;98.20;;;;;;4902251;29;20533;-81
2024/04/08 06:55:44;;;;;;;1.50;0.90;;;17.40;98.20;;;;;;4877055;29;21029;-80
2024/04/08 06:58:14;;;;;;;1.50;0.90;;;17.60;98.20;;;;;;4897797;29;20602;-79
2024/04/08 07:00:40;;;;;;;1.50;0.90;;;17.70;98.20;;;;;;4876525;29;20217;-80
2024/04/08 07:03:08;;;;;;;1.50;0.90;;;17.70;98.20;;;;;;4893176;29;21055;-80
2024/04/08 07:05:34;;;;;;;1.50;0.90;;;17.70;98.20;;;;;;4875560;29;20242;-80
2024/04/08 07:08:02;;;;;;;1.50;0.90;;;17.70;98.20;;;;;;4897560;29;21023;-79
2024/04/08 07:10:28;;;;;;;1.50;1.00;;;17.80;98.20;;;;;;4879498;29;20241;-80
2024/04/08 07:12:55;;;;;;;1.50;0.93;;;17.80;98.20;;;;;;4898743;29;20493;-81
2024/04/08 07:15:21;;;;;;;1.50;0.90;;;17.80;98.20;;;;;;4879975;29;20896;-80
2024/04/08 07:17:48;;;;;;;1.50;0.90;;;17.90;98.20;;;;;;4900691;29;20496;-80
2024/04/08 07:20:13;;;;;;;1.50;1.00;;;18.00;98.20;;;;;;4881425;29;20274;-80
2024/04/08 07:22:41;;;;;;;1.50;0.90;;;18.00;98.20;;;;;;4899993;29;20492;-80
2024/04/08 07:25:08;;;;;;;1.50;0.90;;;18.00;98.20;;;;;;4883268;29;20746;-81
2024/04/08 07:27:36;;;;;;;1.50;0.90;;;18.20;98.20;;;;;;4896773;29;20489;-79
2024/04/08 07:30:03;;;;;;;2.70;2.50;;;18.20;98.20;;;;;;4877760;29;20818;-79
2024/04/08 07:32:30;;;;;;;1.50;0.90;;;18.30;98.20;;;;;;4889949;29;20503;-78
2024/04/08 07:34:56;;;;;;;1.50;0.90;;;18.30;98.20;;;;;;4879666;29;20475;-79
2024/04/08 07:37:23;;;;;;;1.50;1.00;;;18.20;98.20;;;;;;4890811;29;20875;-79
2024/04/08 07:39:50;;;;;;;1.50;0.90;;;18.30;98.20;;;;;;4884723;29;20609;-79
2024/04/08 07:42:18;;;;;;;1.50;0.90;;;18.30;98.20;;;;;;4888261;29;20579;-80
2024/04/08 07:44:44;;;;;;;1.50;0.90;;;18.20;98.20;;;;;;4881059;29;20529;-79
2024/04/08 07:47:11;;;;;;;1.50;0.90;;;18.10;98.20;;;;;;4887811;29;20571;-80
2024/04/08 07:49:37;;;;;;;1.50;0.90;;;18.20;98.20;;;;;;4883583;29;20224;-81
2024/04/08 07:52:04;;;;;;;1.50;0.90;;;18.20;98.20;;;;;;4882468;29;20488;-79
2024/04/08 07:54:30;;;;;;;1.80;1.60;;;18.40;98.20;;;;;;4886475;29;20264;-80
2024/04/08 07:56:56;;;;;;;1.50;1.00;;;18.50;98.20;;;;;;4885771;29;21000;-79
2024/04/08 07:59:24;;;;;;;1.50;0.90;;;18.70;98.20;;;;;;4884799;29;20218;-80
2024/04/08 08:01:52;;;;;;;1.50;0.90;;;18.70;98.20;;;;;;4878973;29;20594;-79
2024/04/08 08:04:17;;;;;;;1.50;0.90;;;18.80;98.20;;;;;;4889639;29;20495;-82
2024/04/08 08:06:44;;;;;;;1.50;1.00;;;18.90;98.20;;;;;;4883533;29;21134;-79
2024/04/08 08:09:11;;;;;;;1.50;0.90;;;19.00;98.20;;;;;;4885332;29;20249;-81
2024/04/08 08:11:38;;;;;;;1.50;0.90;;;19.00;98.20;;;;;;4875476;29;20503;-80
2024/04/08 08:14:05;;;;;;;1.70;1.40;;;19.00;98.20;;;;;;4890470;29;20521;-82
2024/04/08 08:16:34;;;;;;;1.50;1.00;;;19.20;98.20;;;;;;4878687;29;20799;-80
2024/04/08 08:19:01;;;;;;;1.50;0.90;;;19.20;98.20;;;;;;4891396;29;20526;-81
2024/04/08 08:21:28;;;;;;;1.50;0.90;;;19.20;98.20;;;;;;4876260;29;21055;-82
2024/04/08 08:23:57;;;;;;;1.50;0.93;;;19.30;98.20;;;;;;4894357;29;20498;-80
2024/04/08 08:26:33;;;;;;;1.50;1.00;;;19.40;98.20;;;;;;4880966;29;20524;-81
2024/04/08 08:29:00;;;;;;;1.50;0.90;;;19.50;98.20;;;;;;4890310;29;20478;-80
2024/04/08 08:31:26;;;;;;;1.50;0.90;;;19.70;98.20;;;;;;4875033;29;20592;-82
2024/04/08 08:33:54;;;;;;;1.50;1.00;;;19.80;98.20;;;;;;4895303;29;20497;-80
2024/04/08 08:36:22;;;;;;;1.50;0.90;;;19.90;98.20;;;;;;4875646;29;20488;-80
2024/04/08 08:38:48;;;;;;;1.50;0.90;;;20.10;98.20;;;;;;4894525;29;20480;-80
2024/04/08 08:41:17;;;;;;;1.50;0.90;;;20.20;98.20;;;;;;4876091;29;20859;-81
2024/04/08 08:43:45;;;;;;;1.50;0.90;;;20.40;98.20;;;;;;4897567;29;20241;-81
2024/04/08 08:46:12;;;;;;;1.50;0.90;;;20.50;98.20;;;;;;4875719;29;20512;-82
2024/04/08 08:48:39;;;;;;;1.50;0.90;;;20.60;98.20;;;;;;4896918;29;20996;-81
2024/04/08 08:51:12;;;;;;;1.50;0.90;;;20.80;98.20;;;;;;4870984;29;20493;-81
2024/04/08 08:53:38;;;;;;;1.50;0.90;;;21.00;98.20;;;;;;4895894;29;20497;-81
2024/04/08 08:56:13;;;;;;;1.50;0.90;;;21.10;98.20;;;;;;4873597;29;20502;-81
2024/04/08 08:58:40;;;;;;;1.50;0.90;;;21.10;98.20;;;;;;4894360;29;20253;-79
2024/04/08 09:01:13;;;;;;;1.50;0.90;;;21.20;98.20;;;;;;4871830;29;20481;-82
2024/04/08 09:04:00;;;;;;;1.50;0.90;;;21.30;98.20;;;;;;4898527;29;20887;-81
2024/04/08 09:06:29;;;;;;;1.50;0.83;;;21.30;98.20;;;;;;4882114;29;20584;-80
2024/04/08 09:08:55;;;;;;;1.50;0.90;;;21.30;98.20;;;;;;4907593;29;20470;-81
2024/04/08 09:11:22;;;;;;;1.50;0.90;;;21.50;98.20;;;;;;4871025;29;21206;-81
2024/04/08 09:14:10;;;;;;;1.50;0.80;;;21.60;98.20;;;;;;4899037;29;20533;-81
2024/04/08 09:16:48;;;;;;;1.47;0.90;;;21.60;98.20;;;;;;4881502;29;20575;-81
2024/04/08 09:19:19;;;;;;;1.47;0.90;;;21.70;98.20;;;;;;4887842;29;21316;-81
2024/04/08 09:21:47;;;;;;;1.50;0.90;;;21.80;98.20;;;;;;4893623;23;20508;-80
2024/04/08 09:24:13;;;;;;;1.43;0.90;;;21.90;98.20;;;;;;4907998;29;20495;-81
2024/04/08 09:26:40;;;;;;;1.47;0.90;;;22.00;98.20;;;;;;4896345;29;20480;-80
2024/04/08 09:29:06;;;;;;;1.50;0.90;;;22.10;98.20;;;;;;4911144;29;20217;-80
2024/04/08 09:31:33;;;;;;;1.50;0.90;;;22.20;98.20;;;;;;4890245;29;20488;-79
2024/04/08 09:33:59;;;;;;;1.50;0.90;;;22.30;98.20;;;;;;4898178;29;20220;-80
2024/04/08 09:36:27;;;;;;;1.47;0.90;;;22.40;98.20;;;;;;4893898;29;20488;-81
2024/04/08 09:38:56;;;;;;;1.50;0.87;;;22.50;98.20;;;;;;4902711;29;20225;-79
2024/04/08 09:41:24;;;;;;;1.50;0.90;;;22.50;98.20;;;;;;4889581;29;20504;-81
2024/04/08 09:43:51;;;;;;;1.50;0.83;;;22.60;98.20;;;;;;4903190;29;20709;-81
2024/04/08 09:46:18;;;;;;;1.50;0.80;;;22.60;98.20;;;;;;4891236;29;20471;-80
2024/04/08 09:48:45;;;;;;;1.50;0.80;;;22.70;98.20;;;;;;4902549;29;20473;-80
2024/04/08 09:51:13;;;;;;;1.50;1.00;;;22.80;98.20;;;;;;4889121;29;20480;-81
2024/04/08 09:53:39;;;;;;;1.43;0.80;;;22.70;98.20;;;;;;4902928;29;20469;-80
2024/04/08 09:56:17;;;;;;;1.47;0.90;;;22.60;98.20;;;;;;4891874;29;20477;-81
2024/04/08 09:58:52;;;;;;;1.60;1.10;;;22.50;98.20;;;;;;4905111;29;20260;-80
2024/04/08 10:01:21;;;;;;;1.43;0.80;;;22.50;98.20;;;;;;4888218;29;20535;-81
2024/04/08 10:03:50;;;;;;;1.50;0.90;;;22.60;98.20;;;;;;4897972;29;20545;-79
2024/04/08 10:06:18;;;;;;;1.50;0.90;;;22.80;98.20;;;;;;4891181;29;20543;-82
2024/04/08 10:08:47;;;;;;;1.50;0.80;;;22.90;98.20;;;;;;4902411;29;20473;-80
2024/04/08 10:11:16;;;;;;;1.43;0.90;;;22.90;98.20;;;;;;4886267;29;20479;-82
2024/04/08 10:14:02;;;;;;;1.50;0.90;;;23.10;98.20;;;;;;4904914;29;20541;-82
2024/04/08 10:16:38;;;;;;;1.47;0.80;;;23.10;98.20;;;;;;4894402;29;20502;-82
2024/04/08 10:19:04;;;;;;;1.50;0.90;;;23.10;98.20;;;;;;4898947;29;20476;-82
2024/04/08 10:21:31;;;;;;;1.43;0.80;;;23.20;98.20;;;;;;4890604;29;20570;-81
2024/04/08 10:23:58;;;;;;;1.47;0.87;;;23.40;98.20;;;;;;4904166;29;20506;-82
2024/04/08 10:26:28;;;;;;;1.47;0.87;;;23.50;98.20;;;;;;4890715;29;20476;-80
2024/04/08 10:28:54;;;;;;;1.50;0.90;;;23.70;98.20;;;;;;4901052;29;20946;-79
2024/04/08 10:31:22;;;;;;;1.60;1.33;;;23.70;98.20;;;;;;4888393;29;20493;-81
2024/04/08 10:33:49;;;;;;;1.50;0.90;;;23.90;97.70;;;;;;4894046;29;20480;-80
2024/04/08 10:36:16;;;;;;;1.40;0.80;;;23.80;96.90;;;;;;4891030;29;20558;-81
2024/04/08 10:38:41;;;;;;;1.50;0.90;;;23.80;97.00;;;;;;4905214;29;20473;-81
2024/04/08 10:41:09;;;;;;;1.47;0.87;;;23.80;97.40;;;;;;4886907;29;20488;-81
2024/04/08 10:43:37;;;;;;;1.50;0.90;;;23.90;97.10;;;;;;4898451;29;20256;-79
2024/04/08 10:46:10;;;;;;;1.60;1.27;;;23.80;94.10;;;;;;4882243;29;21048;-81
2024/04/08 10:48:39;;;;;;;1.50;0.80;;;23.70;96.00;;;;;;4901713;29;20469;-81
2024/04/08 10:51:09;;;;;;;1.50;0.90;;;23.60;97.00;;;;;;4884954;29;20483;-81
2024/04/08 10:53:34;;;;;;;1.47;0.90;;;23.40;98.20;;;;;;4892873;29;20482;-80
2024/04/08 10:56:01;;;;;;;1.43;0.80;;;23.40;96.30;;;;;;4886917;29;20552;-81
2024/04/08 10:58:27;;;;;;;1.50;0.90;;;23.40;97.60;;;;;;4899817;29;20779;-79
2024/04/08 11:00:55;;;;;;;1.47;0.80;;;23.50;98.20;;;;;;4882042;29;20477;-81
2024/04/08 11:03:22;;;;;;;1.47;0.80;;;23.60;98.20;;;;;;4905293;29;20822;-81
2024/04/08 11:05:49;;;;;;;1.50;0.90;;;23.70;96.80;;;;;;4883503;29;20478;-81
2024/04/08 11:08:16;;;;;;;1.50;0.90;;;23.70;95.90;;;;;;4909621;29;20568;-80
2024/04/08 11:10:45;;;;;;;1.50;0.80;;;23.80;96.60;;;;;;4889779;29;20477;-79
2024/04/08 11:13:24;;;;;;;1.47;0.80;;;23.80;96.30;;;;;;4889487;29;20493;-81
2024/04/08 11:15:52;;;;;;;1.50;0.80;;;23.80;95.00;;;;;;4882050;29;20568;-82
2024/04/08 11:18:20;;;;;;;1.50;0.90;;;23.60;95.30;;;;;;4899519;29;20490;-80
2024/04/08 11:20:49;;;;;;;1.50;0.80;;;23.40;97.10;;;;;;4883074;29;20481;-82
2024/04/08 11:23:19;;;;;;;1.47;0.90;;;23.40;97.50;;;;;;4906251;29;20558;-82
2024/04/08 11:25:46;;;;;;;1.47;0.83;;;23.30;97.30;;;;;;4890528;29;20543;-86
2024/04/08 11:28:12;;;;;;;1.47;0.80;;;23.20;97.40;;;;;;4908960;29;20486;-82
2024/04/08 11:30:44;;;;;;;1.50;1.00;;;23.20;97.80;;;;;;4892556;29;20475;-82
2024/04/08 11:33:10;;;;;;;1.50;0.80;;;23.30;97.70;;;;;;4887949;29;20226;-82
2024/04/08 11:35:39;;;;;;;1.50;0.87;;;23.30;96.50;;;;;;4894067;29;20996;-82
2024/04/08 11:38:06;;;;;;;1.50;0.90;;;23.30;97.00;;;;;;4904002;29;20232;-81
2024/04/08 11:40:32;;;;;;;1.47;0.90;;;23.30;97.40;;;;;;4897353;29;20470;-84
2024/04/08 11:43:06;;;;;;;1.47;0.87;;;23.40;97.60;;;;;;4893398;29;20492;-82
2024/04/08 11:45:33;;;;;;;1.50;0.90;;;23.60;96.90;;;;;;4894849;29;20880;-81
2024/04/08 11:47:59;;;;;;;1.47;0.80;;;23.60;96.50;;;;;;4907364;29;20544;-82
2024/04/08 11:50:26;;;;;;;1.40;0.90;;;23.70;96.30;;;;;;4899121;29;20577;-82
2024/04/08 11:52:58;;;;;;;1.47;0.90;;;23.70;95.60;;;;;;4895155;29;20256;-80
2024/04/08 11:55:25;;;;;;;1.50;0.83;;;23.60;96.20;;;;;;4894583;29;20481;-83
2024/04/08 11:57:50;;;;;;;1.50;0.80;;;23.70;96.60;;;;;;4907211;29;20492;-82
2024/04/08 12:00:25;;;;;;;1.50;0.80;;;23.70;96.00;;;;;;4894801;29;20573;-82
2024/04/08 12:04:35;;;;;;;1.50;0.90;;;23.60;95.90;;;;;;5518951;25;20604;-82
2024/04/08 12:07:02;;;;;;;1.50;1.00;;;23.50;96.10;;;;;;5482666;25;20552;-82
2024/04/08 12:09:30;;;;;;;1.43;0.80;;;23.40;95.90;;;;;;5450944;26;20542;-82
2024/04/08 12:11:56;;;;;;;1.40;0.80;;;23.40;96.80;;;;;;5453543;25;20628;-83
2024/04/08 12:14:26;;;;;;;1.47;0.90;;;23.50;96.80;;;;;;5457107;26;21279;-82
2024/04/08 12:16:53;;;;;;;1.47;0.80;;;23.50;95.90;;;;;;5446075;25;20278;-81
2024/04/08 12:19:21;;;;;;;1.47;0.80;;;23.50;95.60;;;;;;5460983;26;21454;-82
2024/04/08 12:21:50;;;;;;;1.50;1.00;;;23.40;96.80;;;;;;5451207;25;20511;-81
2024/04/08 12:24:18;;;;;;;1.60;1.30;;;23.40;96.70;;;;;;5459391;26;20695;-81
2024/04/08 12:26:44;;;;;;;1.43;0.80;;;23.40;97.30;;;;;;5440402;26;21109;-82
2024/04/08 12:29:12;;;;;;;1.47;0.90;;;23.40;97.30;;;;;;5470044;26;20516;-82
2024/04/08 12:31:38;;;;;;;1.50;0.80;;;23.40;97.00;;;;;;5464161;26;20885;-81
2024/04/08 12:34:07;;;;;;;1.50;0.90;;;23.30;96.80;;;;;;5471366;26;20574;-82
2024/04/08 12:36:33;;;;;;;1.50;1.00;;;23.20;96.60;;;;;;5471135;25;20290;-82
2024/04/08 12:39:05;;;;;;;1.47;0.90;;;22.90;97.20;;;;;;5473859;25;20888;-83
2024/04/08 12:41:31;;;;;;;1.47;0.90;;;22.80;97.50;;;;;;5459733;25;20492;-82
2024/04/08 12:44:00;;;;;;;1.50;0.90;;;22.70;98.10;;;;;;5478327;25;21072;-81
2024/04/08 12:46:25;;;;;;;1.47;0.90;;;22.70;98.20;;;;;;5471207;25;20259;-82
2024/04/08 12:48:54;;;;;;;1.50;1.00;;;22.60;98.20;;;;;;5484402;25;21182;-82
2024/04/08 12:51:20;;;;;;;1.90;1.40;;;22.60;98.20;;;;;;5450795;26;20282;-81